• Join FlightAware (Why Join?)
  • Login
  • US Flag 
03:45PM EDT


 

Airport Tracker/Info


-or-


 

Live Flight TrackerFlight Track Log ✈ N555HF ✈ 09-Oct-2013 ✈ KAUO - KAUO

Flight Track Log - Related Links

Times and Time Zones

All times are in EDT time to prevent confusion due to time zone crossing. See the N555HF flight status page for this flight to view local times or setup timezone preferences in your user account.

Time Position Orientation Groundspeed Altitude Reporting Facility
EDT Latitude Longitude Course Direction KTS MPH feet Rate Location/Type
06:33PM 32.8000 -85.4000 North 108 124 4,700  Level Atlanta TRACON
06:35PM 32.7516 -85.4048 185° South  Level FlightAware Approximate
06:35PM 32.8500 -85.4000 185° South 120 138 5,500  Level Atlanta TRACON
06:36PM 32.8833 -85.4000 360° North 136 157 5,400  Descending Atlanta TRACON
06:38PM 32.9667 -85.3833 10° North 143 165 5,500  Climbing Atlanta TRACON
06:39PM 32.6151 -85.4340 North  Level Estimated
06:41PM 33.0669 -85.3675 North 149 171 5,600  Level Atlanta Center
06:42PM 33.1089 -85.3581 11° North 163 188 5,600 -60 Level Atlanta Center
06:43PM 33.1506 -85.3514 North 152 175 5,500 -60 Descending Atlanta Center
06:44PM 33.1906 -85.3394 14° North 152 175 5,500  Level Atlanta Center
06:45PM 33.2322 -85.3403 359° North 142 163 5,600  Climbing Atlanta Center
06:46PM 33.2719 -85.3333 North 142 163 5,600  Level Atlanta Center
06:47PM 33.3136 -85.3239 11° North 142 163 5,600  Level Atlanta Center
06:48PM 33.3514 -85.3122 14° North 142 163 5,600  Level Atlanta Center
06:49PM 33.3911 -85.3078 North 142 163 5,700  Climbing Atlanta Center
06:50PM 33.4350 -85.3033 North 142 163 5,600 -60 Descending Atlanta Center
06:51PM 33.4769 -85.2964 North 142 163 5,600  Level Atlanta Center
06:52PM 33.5125 -85.2919 North 142 163 5,600  Level Atlanta Center
06:53PM 33.5542 -85.2853 North 142 163 5,600  Level Atlanta Center
06:54PM 33.5961 -85.2758 11° North 147 169 5,600  Level Atlanta Center
06:55PM 33.6336 -85.2689 North 139 160 5,600  Level Atlanta Center
06:56PM 33.6775 -85.2644 North 145 167 5,600  Level Atlanta Center
06:57PM 33.7192 -85.2625 North 145 167 5,600  Level Atlanta Center
06:58PM 33.7633 -85.2508 12° North 145 167 5,700 -60 Climbing Atlanta Center
06:59PM 33.8050 -85.2389 13° North 145 167 5,500 -120 Descending Atlanta Center
07:00PM 33.8447 -85.2319 North 145 167 5,500  Level Atlanta Center
07:01PM 33.8844 -85.2250 North 145 167 5,600  Climbing Atlanta Center
07:02PM 33.9264 -85.2206 North 145 167 5,600  Level Atlanta Center
07:03PM 33.9681 -85.2161 North 145 167 5,600 -60 Level Atlanta Center
07:04PM 34.0058 -85.2142 North 140 161 5,500 -360 Descending Atlanta Center
07:05PM 34.0453 -85.2119 North 140 161 4,900 -600 Descending Atlanta Center
07:06PM 34.0767 -85.2050 10° North 140 161 4,300 -600 Descending Atlanta Center
07:07PM 34.1083 -85.1778 35° Northeast 128 147 3,800 -600 Descending Atlanta Center
07:08PM 34.1439 -85.1733 North 123 142 3,200 -600 Descending Atlanta Center
07:09PM 34.1794 -85.1739 359° North 123 142 2,600 -540 Descending Atlanta Center
07:10PM 34.2147 -85.1717 North 123 142 2,200 1,920 Descending Atlanta Center
07:11PM 34.2544 -85.1747 356° North 123 142 6,500 2,100 Climbing Atlanta Center
07:12PM 34.2919 -85.1753 359° North 123 142 6,500  Level Atlanta Center
07:13PM 34.2881 -85.1575 105° East 123 142 6,500  Level Atlanta Center
07:14PM 34.2797 -85.1575 180° South 123 142 6,500  Level Atlanta Center
07:15PM 34.2378 -85.1619 185° South 123 142 6,500  Level Atlanta Center
07:16PM 34.2211 -85.1642 186° South 123 142 6,500  Level Atlanta Center
07:17PM 34.8114 -84.5903 39° Northeast 123 142 6,500 -1,320 Level Atlanta Center
07:19PM 34.2858 -85.1625 222° Southwest 150 173 2,600 -1,080 Descending Atlanta Center
07:20PM 34.2544 -85.1672 187° South 131 151 3,300 600 Climbing Atlanta Center
07:21PM 34.2275 -85.1694 184° South 114 131 3,900 540 Climbing Atlanta Center
07:22PM 34.1981 -85.1739 187° South 109 125 4,400 300 Climbing Atlanta Center
07:23PM 34.1647 -85.1836 194° South 115 132 4,600 60 Climbing Atlanta Center
07:24PM 34.1228 -85.1906 188° South 138 159 4,600 -60 Level Atlanta Center
07:25PM 34.0811 -85.1950 185° South 153 176 4,500 -60 Descending Atlanta Center
07:26PM 34.0414 -85.2019 188° South 158 182 4,500  Level Atlanta Center
07:27PM 33.9953 -85.2139 192° South 163 188 4,600  Climbing Atlanta Center
07:28PM 33.9533 -85.2258 193° South 163 188 4,600  Level Atlanta Center
07:29PM 33.9094 -85.2303 185° South 163 188 4,600 -60 Level Atlanta Center
07:30PM 33.8636 -85.2347 185° South 163 188 4,500  Descending Atlanta Center
07:31PM 33.8197 -85.2439 190° South 158 182 4,600 60 Climbing Atlanta Center
07:32PM 33.7778 -85.2533 191° South 158 182 4,700  Climbing Atlanta Center
07:33PM 33.7319 -85.2603 187° South 163 188 4,600 -60 Descending Atlanta Center
07:34PM 33.6900 -85.2672 188° South 163 188 4,600  Level Atlanta Center
07:35PM 33.6461 -85.2742 188° South 163 188 4,600  Level Atlanta Center
07:36PM 33.6042 -85.2858 193° South 163 188 4,600 -60 Level Atlanta Center
07:37PM 33.5603 -85.2903 185° South 163 188 4,500 -60 Descending Atlanta Center
07:38PM 33.5167 -85.2922 182° South 163 188 4,500  Level Atlanta Center
07:39PM 33.4747 -85.3064 196° South 157 181 4,500  Level Atlanta Center
07:40PM 33.4328 -85.3183 193° South 162 186 4,500 -60 Level Atlanta Center
07:41PM 33.3931 -85.3250 188° South 162 186 4,400  Descending Atlanta Center
07:42PM 33.3492 -85.3319 188° South 162 186 4,600 60 Climbing Atlanta Center
07:43PM 33.3072 -85.3364 185° South 162 186 4,600  Level Atlanta Center
07:44PM 33.2614 -85.3406 184° South 162 186 4,600  Level Atlanta Center
07:45PM 33.2217 -85.3475 188° South 157 181 4,600  Level Atlanta Center
07:46PM 33.1778 -85.3567 190° South 163 188 4,600  Level Atlanta Center
07:47PM 33.1358 -85.3661 191° South 158 182 4,600 -300 Level Atlanta Center
07:48PM 33.0667 -85.3833 192° South 152 175 3,900 -480 Descending Atlanta TRACON
07:50PM 33.0167 -85.3833 180° South 151 174 3,400 -480 Descending Atlanta TRACON
07:51PM 32.9667 -85.3833 180° South 157 181 2,900 -300 Descending Atlanta TRACON
07:52PM 32.9333 -85.3833 180° South 148 170 2,800 -120 Descending Atlanta TRACON
07:53PM 32.8833 -85.4000 196° South 152 175 2,700 -120 Descending Atlanta TRACON